Time;durP1;ratioP1;P1;durP2;ratioP2;P2;SDS_P1;SDS_P2;PMS_P1;PMS_P2;Temp;Humidity;BMP_temperature;BMP_pressure;BME280_temperature;BME280_humidity;BME280_pressure;Samples;Min_cycle;Max_cycle;Signal;HPM_P1;HPM_P2
2023/09/18 00:01:14;;;;;;;10.30;9.00;;;;;;;15.45;64.72;101332.58;108081;1254;62661;-79
2023/09/18 00:03:42;;;;;;;10.80;9.10;;;;;;;15.42;64.91;101331.98;108021;1254;61230;-79
2023/09/18 00:06:11;;;;;;;10.60;9.10;;;;;;;15.40;65.03;101329.67;108015;1254;74566;-79
2023/09/18 00:08:39;;;;;;;15.10;9.80;;;;;;;15.38;65.14;101332.26;107990;1257;72577;-79
2023/09/18 00:11:06;;;;;;;10.80;9.70;;;;;;;15.37;65.20;101330.77;108242;1254;72483;-79
2023/09/18 00:13:34;;;;;;;11.20;9.20;;;;;;;15.36;65.32;101332.41;108050;1254;61740;-79
2023/09/18 00:16:01;;;;;;;12.80;9.30;;;;;;;15.34;65.33;101330.92;108009;1254;61254;-79
2023/09/18 00:18:28;;;;;;;11.00;9.20;;;;;;;15.33;65.37;101329.34;107976;1253;74367;-79
2023/09/18 00:20:54;;;;;;;12.20;9.30;;;;;;;15.31;65.65;101334.90;108049;1254;73048;-79
2023/09/18 00:23:21;;;;;;;12.40;9.40;;;;;;;15.30;65.79;101333.83;108033;1253;70712;-79
2023/09/18 00:25:49;;;;;;;10.50;9.20;;;;;;;15.28;65.93;101334.64;108086;1254;62046;-78
2023/09/18 00:28:16;;;;;;;10.60;8.80;;;;;;;15.28;66.04;101333.45;108043;1254;59467;-78
2023/09/18 00:30:49;;;;;;;12.00;9.80;;;;;;;15.26;66.14;101334.09;108073;1254;74668;-78
2023/09/18 00:33:16;;;;;;;13.20;9.70;;;;;;;15.24;66.36;101336.62;107952;1254;72790;-79
2023/09/18 00:35:50;;;;;;;12.40;10.20;;;;;;;15.23;66.50;101340.45;108094;1254;72719;-78
2023/09/18 00:38:17;;;;;;;12.50;9.40;;;;;;;15.23;66.48;101340.83;108103;1254;61138;-80
2023/09/18 00:40:44;;;;;;;11.20;9.30;;;;;;;15.23;66.63;101337.98;108092;1254;61177;-79
2023/09/18 00:43:11;;;;;;;11.30;9.00;;;;;;;15.23;66.63;101340.34;108247;1254;74496;-78
2023/09/18 00:45:42;;;;;;;11.20;9.30;;;;;;;15.22;66.69;101338.88;107995;1254;71350;-78
2023/09/18 00:48:09;;;;;;;10.20;9.00;;;;;;;15.22;66.69;101342.00;108092;1254;71520;-80
2023/09/18 00:50:37;;;;;;;10.60;9.10;;;;;;;15.21;66.74;101342.60;108136;1254;61180;-79
2023/09/18 00:53:04;;;;;;;11.70;9.20;;;;;;;15.18;66.67;101339.73;107960;1254;61167;-79
2023/09/18 00:55:32;;;;;;;10.30;9.10;;;;;;;15.14;66.76;101340.49;107953;1254;74531;-80
2023/09/18 00:57:58;;;;;;;10.60;8.70;;;;;;;15.11;66.78;101341.19;108057;1254;72567;-79
2023/09/18 01:00:25;;;;;;;9.70;8.50;;;;;;;15.07;66.79;101341.73;108248;1253;72752;-80
2023/09/18 01:02:52;;;;;;;11.00;9.30;;;;;;;15.04;66.82;101340.65;108065;1254;62002;-79
2023/09/18 01:05:20;;;;;;;10.50;8.80;;;;;;;15.01;66.83;101338.17;107998;1254;61253;-79
2023/09/18 01:07:47;;;;;;;10.10;8.80;;;;;;;14.98;66.82;101339.23;108144;1254;74598;-79
2023/09/18 01:10:16;;;;;;;12.00;9.30;;;;;;;14.96;66.88;101336.01;108117;1254;70217;-78
2023/09/18 01:12:47;;;;;;;10.50;8.50;;;;;;;14.95;66.82;101339.02;108038;1254;73909;-79
2023/09/18 01:15:23;;;;;;;9.80;8.80;;;;;;;14.93;66.88;101333.64;108004;1257;61899;-79
2023/09/18 01:17:49;;;;;;;10.40;9.00;;;;;;;14.90;66.89;101333.89;108041;1254;61231;-80
2023/09/18 01:20:17;;;;;;;12.70;8.90;;;;;;;14.89;66.85;101335.41;108030;1254;74415;-79
2023/09/18 01:22:44;;;;;;;11.90;9.00;;;;;;;14.87;66.93;101340.62;108005;1254;72627;-80
2023/09/18 01:25:11;;;;;;;10.10;8.90;;;;;;;14.82;66.99;101337.81;108091;1254;72528;-79
2023/09/18 01:27:38;;;;;;;10.50;8.90;;;;;;;14.80;67.09;101338.19;108104;1253;61696;-79
2023/09/18 01:30:06;;;;;;;11.60;9.00;;;;;;;14.77;67.06;101340.23;107923;1254;61145;-79
2023/09/18 01:32:33;;;;;;;11.50;9.40;;;;;;;14.73;67.05;101339.09;107977;1254;74487;-79
2023/09/18 01:35:01;;;;;;;10.00;8.40;;;;;;;14.70;67.19;101331.70;108049;1254;71664;-79
2023/09/18 01:37:29;;;;;;;11.20;8.50;;;;;;;14.69;67.23;101330.63;108048;1254;72589;-79
2023/09/18 01:39:59;;;;;;;10.20;8.60;;;;;;;14.66;67.32;101330.88;107929;1254;62032;-79
2023/09/18 01:42:28;;;;;;;9.80;8.40;;;;;;;14.63;67.24;101331.16;107993;1254;61159;-79
2023/09/18 01:44:57;;;;;;;10.50;8.90;;;;;;;14.58;67.39;101329.14;108007;1254;74538;-79
2023/09/18 01:47:23;;;;;;;10.70;8.20;;;;;;;14.56;67.53;101325.92;108079;1253;72557;-79
2023/09/18 01:49:50;;;;;;;10.70;8.80;;;;;;;14.53;67.56;101327.14;107826;1260;72809;-80
2023/09/18 01:52:17;;;;;;;10.50;8.50;;;;;;;14.52;67.60;101325.86;108077;1253;61807;-80
2023/09/18 01:54:46;;;;;;;12.40;8.60;;;;;;;14.52;67.70;101329.79;108036;1254;61120;-79
2023/09/18 01:57:13;;;;;;;9.30;7.90;;;;;;;14.53;67.75;101328.33;108063;1254;74466;-79
2023/09/18 01:59:41;;;;;;;10.60;8.30;;;;;;;14.54;67.73;101324.36;107883;1254;70605;-79
2023/09/18 02:02:09;;;;;;;9.90;8.00;;;;;;;14.54;67.73;101322.54;108013;1260;72712;-78
2023/09/18 02:04:37;;;;;;;9.30;7.80;;;;;;;14.54;67.83;101322.05;108045;1255;61897;-78
2023/09/18 02:07:25;;;;;;;10.30;8.20;;;;;;;14.54;67.81;101322.41;107925;1254;61238;-78
2023/09/18 02:09:52;;;;;;;9.70;7.90;;;;;;;14.53;67.79;101321.39;108079;1254;74648;-80
2023/09/18 02:12:20;;;;;;;9.40;8.10;;;;;;;14.53;67.82;101321.23;108085;1254;72801;-78
2023/09/18 02:14:48;;;;;;;9.10;7.80;;;;;;;14.54;67.88;101322.79;108084;1254;71594;-79
2023/09/18 02:17:15;;;;;;;9.60;8.00;;;;;;;14.53;67.84;101320.52;108044;1254;61719;-78
2023/09/18 02:19:42;;;;;;;9.90;7.70;;;;;;;14.51;67.88;101320.38;107964;1253;60162;-79
2023/09/18 02:22:09;;;;;;;10.20;7.90;;;;;;;14.50;67.98;101322.33;108117;1254;74432;-79
2023/09/18 02:24:36;;;;;;;8.50;7.50;;;;;;;14.49;67.96;101322.48;108144;1254;72529;-78
2023/09/18 02:27:06;;;;;;;9.10;7.90;;;;;;;14.50;67.96;101320.92;107971;1254;71081;-79
2023/09/18 02:29:33;;;;;;;11.00;8.60;;;;;;;14.51;67.93;101321.33;107989;1254;60971;-79
2023/09/18 02:32:00;;;;;;;8.60;7.60;;;;;;;14.52;67.92;101320.63;108142;1257;61247;-79
2023/09/18 02:34:26;;;;;;;8.90;7.30;;;;;;;14.53;68.01;101316.23;108063;1254;74423;-79
2023/09/18 02:36:53;;;;;;;9.10;7.90;;;;;;;14.54;67.85;101315.00;107934;1254;71488;-79
2023/09/18 02:39:21;;;;;;;10.70;8.00;;;;;;;14.53;67.76;101317.67;108320;1254;71110;-79
2023/09/18 02:41:49;;;;;;;11.20;8.10;;;;;;;14.54;67.69;101314.13;108045;1254;63104;-80
2023/09/18 02:44:16;;;;;;;9.70;8.00;;;;;;;14.57;67.72;101315.44;108066;1254;61068;-80
2023/09/18 02:46:43;;;;;;;9.90;7.60;;;;;;;14.60;67.72;101315.29;108028;1259;74574;-79
2023/09/18 02:49:11;;;;;;;9.40;7.80;;;;;;;14.62;67.80;101317.71;108023;1254;72653;-80
2023/09/18 02:51:38;;;;;;;10.20;8.60;;;;;;;14.63;67.90;101315.72;108236;1254;71640;-79
2023/09/18 02:54:07;;;;;;;10.30;8.80;;;;;;;14.65;67.90;101313.31;108045;1253;61701;-79
2023/09/18 02:56:34;;;;;;;9.10;7.80;;;;;;;14.68;67.91;101312.34;108138;1253;61118;-80
2023/09/18 02:59:01;;;;;;;8.20;7.40;;;;;;;14.69;67.78;101311.75;108017;1255;76414;-80
2023/09/18 03:01:28;;;;;;;8.80;7.90;;;;;;;14.69;67.65;101307.02;108091;1254;71585;-80
2023/09/18 03:03:55;;;;;;;9.40;7.50;;;;;;;14.69;67.62;101307.24;107978;1254;72476;-79
2023/09/18 03:06:22;;;;;;;10.40;7.70;;;;;;;14.68;67.54;101305.20;108094;1254;61424;-79
2023/09/18 03:08:48;;;;;;;8.80;7.30;;;;;;;14.68;67.52;101301.22;108093;1254;61097;-80
2023/09/18 03:11:16;;;;;;;10.10;8.00;;;;;;;14.67;67.50;101302.65;108039;1254;73359;-81
2023/09/18 03:13:46;;;;;;;13.10;8.00;;;;;;;14.67;67.44;101304.42;108128;1254;72824;-79
2023/09/18 03:16:13;;;;;;;9.40;7.60;;;;;;;14.68;67.39;101304.98;108004;1257;72759;-78
2023/09/18 03:18:40;;;;;;;9.00;7.70;;;;;;;14.68;67.42;101306.97;108042;1254;61846;-79
2023/09/18 03:21:07;;;;;;;9.90;8.40;;;;;;;14.69;67.41;101305.62;108062;1254;61164;-78
2023/09/18 03:23:34;;;;;;;9.10;7.60;;;;;;;14.68;67.40;101304.66;108036;1257;74418;-79
2023/09/18 03:26:01;;;;;;;9.40;7.50;;;;;;;14.66;67.39;101307.13;108075;1254;71403;-79
2023/09/18 03:28:29;;;;;;;10.50;7.90;;;;;;;14.62;67.30;101303.25;108078;1253;72733;-80
2023/09/18 03:30:58;;;;;;;9.90;7.90;;;;;;;14.61;67.24;101307.11;108070;1253;61052;-78
2023/09/18 03:33:25;;;;;;;11.60;7.80;;;;;;;14.62;67.28;101304.81;108114;1253;61169;-79
2023/09/18 03:35:54;;;;;;;10.50;7.70;;;;;;;14.63;67.32;101305.06;107952;1254;75654;-78
2023/09/18 03:38:22;;;;;;;10.10;7.70;;;;;;;14.64;67.30;101307.39;108149;1254;72527;-79
2023/09/18 03:40:50;;;;;;;10.00;7.80;;;;;;;14.65;67.23;101310.25;108015;1254;71642;-77
2023/09/18 03:43:17;;;;;;;10.10;7.50;;;;;;;14.66;67.27;101306.85;108078;1254;61675;-78
2023/09/18 03:45:44;;;;;;;9.20;7.60;;;;;;;14.67;67.29;101308.64;108123;1253;61289;-79
2023/09/18 03:48:11;;;;;;;10.40;7.90;;;;;;;14.66;67.13;101306.64;107988;1254;74550;-79
2023/09/18 03:50:38;;;;;;;9.30;8.00;;;;;;;14.65;67.15;101308.25;107956;1254;72531;-79
2023/09/18 03:53:06;;;;;;;10.20;7.90;;;;;;;14.65;67.14;101307.18;108074;1254;72609;-79
2023/09/18 03:55:33;;;;;;;10.40;7.80;;;;;;;14.69;67.04;101307.30;108071;1254;61842;-79
2023/09/18 03:58:00;;;;;;;10.70;7.80;;;;;;;14.73;67.10;101308.20;107941;1253;61148;-79
2023/09/18 04:00:27;;;;;;;10.30;7.60;;;;;;;14.75;67.07;101313.38;107937;1257;74686;-79
2023/09/18 04:02:54;;;;;;;9.10;7.90;;;;;;;14.79;67.11;101314.14;108038;1253;73591;-80
2023/09/18 04:05:21;;;;;;;11.20;8.00;;;;;;;14.85;67.07;101316.03;108148;1254;72679;-79
2023/09/18 04:07:48;;;;;;;9.30;7.60;;;;;;;14.88;67.00;101315.71;108131;1254;61096;-80
2023/09/18 04:10:19;;;;;;;9.70;7.60;;;;;;;14.93;66.92;101319.34;108050;1254;61167;-78
2023/09/18 04:12:46;;;;;;;10.50;8.10;;;;;;;14.98;66.92;101316.16;108057;1254;74465;-79
2023/09/18 04:15:16;;;;;;;11.20;7.50;;;;;;;15.05;66.87;101313.58;108057;1254;72584;-79
2023/09/18 04:17:44;;;;;;;10.50;7.90;;;;;;;15.12;66.91;101316.81;108007;1253;72507;-79
2023/09/18 04:20:12;;;;;;;9.40;8.10;;;;;;;15.19;66.91;101313.80;108160;1254;61784;-79
2023/09/18 04:22:44;;;;;;;9.60;8.00;;;;;;;15.27;66.86;101314.77;108138;1254;61107;-80
2023/09/18 04:25:13;;;;;;;9.70;7.50;;;;;;;15.34;66.93;101309.82;108022;1254;74712;-79
2023/09/18 04:27:40;;;;;;;10.00;8.00;;;;;;;15.38;66.79;101313.05;107952;1254;71236;-78
2023/09/18 04:30:09;;;;;;;8.60;7.60;;;;;;;15.43;66.81;101313.41;108044;1256;72628;-79
2023/09/18 04:32:37;;;;;;;9.40;7.70;;;;;;;15.48;66.71;101311.46;108057;1254;61973;-79
2023/09/18 04:35:05;;;;;;;9.00;7.80;;;;;;;15.48;66.47;101310.77;107946;1254;61861;-78
2023/09/18 04:37:36;;;;;;;12.60;8.70;;;;;;;15.44;66.55;101312.98;108061;1254;74759;-79
2023/09/18 04:40:04;;;;;;;10.10;8.00;;;;;;;15.43;66.47;101314.86;108073;1254;72738;-80
2023/09/18 04:42:31;;;;;;;10.70;8.00;;;;;;;15.51;66.58;101310.27;108084;1254;71385;-81
2023/09/18 04:45:00;;;;;;;9.60;7.70;;;;;;;15.62;66.46;101310.16;107932;1254;61237;-81
2023/09/18 04:47:27;;;;;;;9.80;7.80;;;;;;;15.70;66.32;101306.79;108086;1254;61208;-80
2023/09/18 04:49:54;;;;;;;10.00;7.50;;;;;;;15.80;66.21;101309.02;108003;1254;74909;-80
2023/09/18 04:52:22;;;;;;;10.60;8.00;;;;;;;15.90;66.00;101308.06;108084;1254;72399;-79
2023/09/18 04:54:49;;;;;;;10.60;8.30;;;;;;;16.00;65.94;101307.08;107931;1260;72727;-80
2023/09/18 04:57:16;;;;;;;11.20;8.50;;;;;;;16.09;65.62;101309.26;108022;1254;61847;-79
2023/09/18 04:59:46;;;;;;;10.90;8.10;;;;;;;16.20;65.55;101311.25;107955;1254;61466;-79
2023/09/18 05:02:19;;;;;;;10.80;8.40;;;;;;;16.33;65.32;101308.55;108061;1254;73372;-79
2023/09/18 05:04:46;;;;;;;11.70;8.60;;;;;;;16.43;65.20;101310.17;108017;1258;74412;-79
2023/09/18 05:07:14;;;;;;;11.00;8.80;;;;;;;16.53;65.09;101307.38;107941;1253;72457;-78
2023/09/18 05:09:41;;;;;;;11.80;9.10;;;;;;;16.64;64.84;101306.61;107959;1255;61762;-79
2023/09/18 05:12:13;;;;;;;15.70;8.60;;;;;;;16.71;64.68;101307.86;107982;1254;61218;-80
2023/09/18 05:14:40;;;;;;;12.30;8.60;;;;;;;16.76;64.66;101307.09;108029;1254;73348;-80
2023/09/18 05:17:13;;;;;;;11.40;8.00;;;;;;;16.86;64.65;101311.30;108102;1254;72688;-80
2023/09/18 05:19:40;;;;;;;10.70;8.00;;;;;;;16.96;64.49;101310.64;108097;1253;72651;-80
2023/09/18 05:22:08;;;;;;;10.00;8.80;;;;;;;17.07;64.29;101312.98;108013;1254;61678;-79
2023/09/18 05:24:35;;;;;;;11.50;8.30;;;;;;;17.15;63.91;101312.27;108034;1254;61836;-80
2023/09/18 05:27:02;;;;;;;11.40;9.00;;;;;;;17.23;63.77;101314.98;108031;1254;74416;-78
2023/09/18 05:29:29;;;;;;;13.30;8.60;;;;;;;17.31;63.58;101312.02;108031;1253;72746;-79
2023/09/18 05:31:58;;;;;;;10.40;8.10;;;;;;;17.40;63.34;101310.98;108038;1254;72691;-80
2023/09/18 05:34:26;;;;;;;10.60;8.10;;;;;;;17.46;63.31;101309.25;108340;1254;61799;-80
2023/09/18 05:36:53;;;;;;;9.90;8.30;;;;;;;17.54;63.33;101311.92;108116;1254;62907;-79
2023/09/18 05:39:20;;;;;;;10.40;8.20;;;;;;;17.66;63.04;101311.76;108063;1254;74665;-80
2023/09/18 05:41:47;;;;;;;10.50;8.90;;;;;;;17.77;62.95;101305.16;108392;1254;70457;-78
2023/09/18 05:44:14;;;;;;;11.90;8.40;;;;;;;17.91;62.87;101309.36;108113;1254;72822;-80
2023/09/18 05:46:41;;;;;;;12.70;8.90;;;;;;;18.03;62.60;101304.84;108038;1253;61247;-80
2023/09/18 05:49:08;;;;;;;12.30;8.20;;;;;;;18.16;62.00;101308.03;108199;1254;61972;-81
2023/09/18 05:51:35;;;;;;;9.60;7.60;;;;;;;18.28;61.32;101305.45;108208;1254;73157;-78
2023/09/18 05:54:04;;;;;;;10.50;7.70;;;;;;;18.39;60.63;101306.58;108304;1254;71485;-78
2023/09/18 05:56:31;;;;;;;10.80;8.50;;;;;;;18.55;60.24;101304.31;107974;1253;72702;-79
2023/09/18 05:58:58;;;;;;;12.10;7.80;;;;;;;18.70;59.81;101298.27;108009;1253;61346;-78
2023/09/18 06:01:25;;;;;;;9.10;8.00;;;;;;;18.82;58.75;101298.55;108186;1253;59405;-79
2023/09/18 06:03:52;;;;;;;9.50;7.90;;;;;;;18.93;57.92;101298.82;108081;1253;74737;-80
2023/09/18 06:06:19;;;;;;;11.10;7.90;;;;;;;19.03;56.83;101299.69;108023;1253;72763;-79
2023/09/18 06:08:48;;;;;;;9.60;8.60;;;;;;;19.11;56.10;101302.20;108081;1253;72559;-80
2023/09/18 06:11:15;;;;;;;8.90;7.10;;;;;;;19.20;55.40;101301.51;108108;1254;61262;-79
2023/09/18 06:13:42;;;;;;;10.10;7.60;;;;;;;19.30;55.02;101297.50;108004;1254;61197;-79
2023/09/18 06:16:08;;;;;;;9.40;8.10;;;;;;;19.39;54.67;101294.58;108139;1254;73643;-80
2023/09/18 06:18:38;;;;;;;9.70;7.80;;;;;;;19.49;54.36;101290.21;107987;1254;74104;-80
2023/09/18 06:21:05;;;;;;;9.80;7.60;;;;;;;19.61;54.26;101288.17;107952;1254;73138;-80
2023/09/18 06:23:33;;;;;;;10.30;7.60;;;;;;;19.71;53.65;101289.63;107874;1254;61215;-79
2023/09/18 06:25:59;;;;;;;10.60;8.20;;;;;;;19.77;52.79;101290.54;108084;1254;60405;-79
2023/09/18 06:28:26;;;;;;;9.20;8.00;;;;;;;19.78;52.44;101295.41;108042;1254;74989;-79
2023/09/18 06:30:56;;;;;;;9.20;8.10;;;;;;;19.82;52.45;101297.55;108029;1254;72343;-79
2023/09/18 06:33:23;;;;;;;10.60;7.70;;;;;;;19.86;52.25;101301.48;107526;1254;597212;-79
2023/09/18 06:35:52;;;;;;;10.30;7.00;;;;;;;19.90;52.28;101299.33;107971;1254;62731;-79
2023/09/18 06:38:20;;;;;;;10.90;7.70;;;;;;;19.96;51.21;101299.45;107989;1253;61250;-79
2023/09/18 06:40:50;;;;;;;10.60;7.70;;;;;;;19.98;51.10;101301.68;107944;1254;73811;-78
2023/09/18 06:43:17;;;;;;;10.70;7.30;;;;;;;20.03;51.24;101301.96;108156;1255;71386;-78
2023/09/18 06:45:44;;;;;;;9.40;7.90;;;;;;;20.12;51.17;101305.73;107942;1254;71383;-78
2023/09/18 06:48:11;;;;;;;10.00;7.90;;;;;;;20.25;51.00;101300.20;107875;1253;61138;-79
2023/09/18 06:50:39;;;;;;;10.00;8.00;;;;;;;20.36;51.00;101306.75;108053;1253;61073;-78
2023/09/18 06:53:07;;;;;;;9.30;7.80;;;;;;;20.47;50.48;101307.00;107871;1253;74904;-78
2023/09/18 06:55:34;;;;;;;8.30;7.20;;;;;;;20.57;50.12;101305.88;108113;1253;71961;-78
2023/09/18 06:58:01;;;;;;;9.80;7.70;;;;;;;20.65;49.76;101306.30;107864;1254;72657;-78
2023/09/18 07:00:28;;;;;;;10.70;7.90;;;;;;;20.73;49.59;101304.06;108101;1253;61003;-79
2023/09/18 07:02:55;;;;;;;10.40;7.90;;;;;;;20.81;49.48;101304.83;107991;1254;60153;-78
2023/09/18 07:05:22;;;;;;;9.40;7.90;;;;;;;20.89;49.05;101306.23;108077;1254;73309;-77
2023/09/18 07:07:49;;;;;;;10.40;8.00;;;;;;;20.93;49.36;101305.53;107922;1254;70576;-77
2023/09/18 07:10:16;;;;;;;9.20;7.40;;;;;;;21.03;49.64;101303.93;107986;1254;72803;-78
2023/09/18 07:12:43;;;;;;;9.30;7.70;;;;;;;21.18;49.58;101303.93;108004;1254;61086;-79
2023/09/18 07:15:10;;;;;;;9.80;7.90;;;;;;;21.34;49.46;101301.71;108014;1254;60388;-77
2023/09/18 07:17:37;;;;;;;9.70;7.40;;;;;;;21.49;49.13;101298.23;108012;1253;73472;-77
2023/09/18 07:20:13;;;;;;;11.50;7.90;;;;;;;21.63;48.46;101297.14;107873;1254;72650;-79
2023/09/18 07:22:45;;;;;;;11.30;8.10;;;;;;;21.76;47.92;101293.20;107997;1253;71439;-79
2023/09/18 07:25:12;;;;;;;7.80;6.70;;;;;;;21.89;47.84;101292.40;107964;1253;61283;-79
2023/09/18 07:27:43;;;;;;;9.10;7.30;;;;;;;21.98;47.33;101288.55;107933;1254;61219;-82
2023/09/18 07:30:12;;;;;;;9.80;7.30;;;;;;;22.07;47.28;101288.29;108855;1253;73209;-81
2023/09/18 07:32:42;;;;;;;10.30;8.00;;;;;;;22.16;46.93;101289.80;108223;1253;72153;-80
2023/09/18 07:35:15;;;;;;;9.80;7.60;;;;;;;22.27;47.16;101287.36;107931;1254;72683;-83
2023/09/18 07:37:46;;;;;;;8.10;7.20;;;;;;;22.36;46.98;101286.00;107884;1253;61193;-79
2023/09/18 07:40:13;;;;;;;9.00;7.60;;;;;;;22.41;47.24;101284.54;108057;1254;62629;-79
2023/09/18 07:42:40;;;;;;;8.70;7.70;;;;;;;22.46;46.71;101282.42;108074;1254;74623;-75
2023/09/18 07:45:08;;;;;;;10.30;7.00;;;;;;;22.48;46.89;101280.73;108036;1254;72552;-76
2023/09/18 07:47:35;;;;;;;9.80;7.50;;;;;;;22.58;47.13;101277.88;108171;1253;71685;-77
2023/09/18 07:50:04;;;;;;;9.90;7.30;;;;;;;22.72;46.96;101280.95;108030;1254;61464;-76
2023/09/18 07:52:31;;;;;;;8.80;7.20;;;;;;;22.89;46.74;101280.42;108162;1254;61942;-78
2023/09/18 07:54:58;;;;;;;9.00;6.50;;;;;;;23.04;46.40;101276.52;108096;1253;74417;-80
2023/09/18 07:57:28;;;;;;;9.60;7.30;;;;;;;23.18;46.10;101277.96;108095;1254;74052;-81
2023/09/18 07:59:54;;;;;;;8.70;7.10;;;;;;;23.25;45.67;101277.17;107880;1253;71475;-80
2023/09/18 08:02:22;;;;;;;8.90;6.90;;;;;;;23.30;45.13;101274.37;108175;1254;61259;-80
2023/09/18 08:04:50;;;;;;;7.70;6.90;;;;;;;23.34;44.93;101277.36;108066;1253;61221;-80
2023/09/18 08:07:17;;;;;;;6.60;5.90;;;;;;;23.43;45.03;101276.76;108049;1254;74787;-80
2023/09/18 08:09:47;;;;;;;9.00;6.60;;;;;;;23.54;44.64;101276.53;108025;1254;71319;-79
2023/09/18 08:12:14;;;;;;;9.50;6.60;;;;;;;23.61;44.56;101277.35;107984;1254;72587;-80
2023/09/18 08:14:41;;;;;;;8.20;7.00;;;;;;;23.74;44.56;101273.20;107982;1254;61209;-78
2023/09/18 08:17:08;;;;;;;8.90;6.60;;;;;;;23.90;44.16;101270.97;107987;1254;61132;-80
2023/09/18 08:19:38;;;;;;;6.90;6.20;;;;;;;24.06;44.00;101265.77;108835;1254;74404;-79
2023/09/18 08:22:05;;;;;;;8.50;6.40;;;;;;;24.22;43.67;101267.30;108201;1254;72796;-81
2023/09/18 08:24:32;;;;;;;9.20;6.40;;;;;;;24.34;43.86;101263.17;108107;1254;72750;-79
2023/09/18 08:27:00;;;;;;;8.30;6.20;;;;;;;24.48;43.60;101259.30;108076;1254;61452;-80
2023/09/18 08:29:27;;;;;;;8.50;6.40;;;;;;;24.63;43.66;101258.52;108075;1254;61132;-79
2023/09/18 08:31:53;;;;;;;8.60;6.20;;;;;;;24.77;43.04;101257.01;108080;1254;73366;-79
2023/09/18 08:34:20;;;;;;;7.90;6.40;;;;;;;24.89;42.84;101254.30;108173;1254;72826;-80
2023/09/18 08:36:50;;;;;;;9.00;6.80;;;;;;;25.02;42.83;101255.93;108089;1254;72691;-80
2023/09/18 08:39:17;;;;;;;8.30;6.30;;;;;;;25.13;42.61;101254.14;108343;1253;60997;-78
2023/09/18 08:41:44;;;;;;;9.50;6.50;;;;;;;25.24;42.42;101255.06;108020;1254;61276;-77
2023/09/18 08:44:11;;;;;;;8.90;6.60;;;;;;;25.34;42.08;101251.33;107981;1254;73463;-78
2023/09/18 08:46:38;;;;;;;8.20;6.40;;;;;;;25.42;41.81;101251.67;108216;1254;71368;-79
2023/09/18 08:49:05;;;;;;;7.70;6.20;;;;;;;25.53;41.41;101250.29;108373;1254;72507;-79
2023/09/18 08:51:33;;;;;;;8.40;6.10;;;;;;;25.61;41.25;101246.73;108094;1254;61201;-79
2023/09/18 08:54:00;;;;;;;7.90;6.10;;;;;;;25.73;40.93;101239.85;108074;1254;61157;-79
2023/09/18 08:56:27;;;;;;;6.90;6.10;;;;;;;25.85;40.86;101240.02;108020;1254;73380;-79
2023/09/18 08:58:56;;;;;;;9.20;5.60;;;;;;;25.98;40.19;101237.81;108046;1254;71258;-80
2023/09/18 09:01:23;;;;;;;6.20;5.40;;;;;;;26.07;39.10;101233.92;108353;1254;72662;-79
2023/09/18 09:03:53;;;;;;;6.90;5.90;;;;;;;26.10;38.73;101230.27;107944;1254;61147;-81
2023/09/18 09:06:20;;;;;;;7.60;6.00;;;;;;;26.14;38.71;101231.17;108373;1253;60674;-81
2023/09/18 09:08:47;;;;;;;8.20;5.40;;;;;;;26.16;39.04;101231.30;107903;1254;73318;-79
2023/09/18 09:11:14;;;;;;;7.30;5.50;;;;;;;26.24;39.00;101228.64;108078;1254;73244;-78
2023/09/18 09:13:43;;;;;;;8.00;5.90;;;;;;;26.36;38.81;101228.69;108096;1254;72262;-80
2023/09/18 09:16:13;;;;;;;8.30;6.10;;;;;;;26.50;38.61;101222.61;108014;1254;61208;-79
2023/09/18 09:18:48;;;;;;;5.90;5.30;;;;;;;26.61;38.49;101223.45;108050;1254;61977;-78
2023/09/18 09:21:16;;;;;;;6.50;5.20;;;;;;;26.77;38.30;101225.45;108084;1254;74638;-80
2023/09/18 09:23:55;;;;;;;7.30;5.40;;;;;;;26.89;36.00;101222.55;108030;1254;71330;-79
2023/09/18 09:26:23;;;;;;;5.80;4.60;;;;;;;26.95;35.39;101221.92;107954;1254;63875;-82
2023/09/18 09:28:50;;;;;;;5.90;4.60;;;;;;;27.04;34.82;101225.77;108182;1254;61119;-80
2023/09/18 09:31:26;;;;;;;6.40;4.30;;;;;;;27.16;34.27;101222.33;107950;1254;61243;-81
2023/09/18 09:33:53;;;;;;;7.30;5.10;;;;;;;27.26;33.44;101223.77;108120;1254;65994;-81
2023/09/18 09:36:21;;;;;;;7.70;4.70;;;;;;;27.31;33.78;101219.02;107986;1253;64039;-80
2023/09/18 09:38:49;;;;;;;8.40;5.00;;;;;;;27.39;34.49;101217.89;108119;1257;72368;-80
2023/09/18 09:41:17;;;;;;;6.90;4.80;;;;;;;27.50;34.31;101214.55;107824;1254;61220;-82
2023/09/18 09:43:44;;;;;;;5.90;4.80;;;;;;;27.60;34.13;101215.08;107960;1254;61244;-80
2023/09/18 09:46:18;;;;;;;7.50;5.00;;;;;;;27.68;33.83;101208.67;108064;1253;66014;-80
2023/09/18 09:49:01;;;;;;;6.20;4.80;;;;;;;27.78;33.28;101206.73;108062;1254;71315;-81
2023/09/18 09:51:29;;;;;;;7.40;4.90;;;;;;;27.83;32.82;101204.80;108091;1254;62775;-81
2023/09/18 09:53:58;;;;;;;6.90;4.70;;;;;;;27.88;32.98;101200.44;108056;1253;59020;-80
2023/09/18 09:56:44;;;;;;;5.80;4.80;;;;;;;27.91;33.20;101196.27;108027;1254;61106;-81
2023/09/18 09:59:12;;;;;;;7.70;4.30;;;;;;;27.95;32.30;101196.44;107951;1257;75790;-81
2023/09/18 10:01:44;;;;;;;6.20;4.70;;;;;;;27.97;32.47;101195.91;108024;1254;63976;-81
2023/09/18 10:04:16;;;;;;;6.10;4.30;;;;;;;28.02;33.01;101194.55;108052;1254;63031;-81
2023/09/18 10:06:46;;;;;;;5.90;4.50;;;;;;;28.10;32.50;101194.96;108035;1254;61131;-81
2023/09/18 10:09:13;;;;;;;6.40;4.50;;;;;;;28.19;31.88;101193.24;107987;1254;59547;-81
2023/09/18 10:11:41;;;;;;;6.70;4.60;;;;;;;28.25;31.25;101192.35;107991;1254;65976;-79
2023/09/18 10:14:16;;;;;;;6.20;4.60;;;;;;;28.30;31.47;101190.64;108011;1254;64097;-81
2023/09/18 10:16:54;;;;;;;4.90;4.20;;;;;;;28.34;31.43;101186.02;108007;1254;64894;-81
2023/09/18 10:19:26;;;;;;;7.00;4.10;;;;;;;28.37;30.77;101177.60;107946;1254;61205;-81
2023/09/18 10:22:05;;;;;;;;;;;;;;;28.40;30.75;101173.76;108008;1254;61144;-81
2023/09/18 10:24:36;;;;;;;8.30;4.20;;;;;;;28.47;30.84;101167.28;108023;1254;66001;-81
2023/09/18 10:27:05;;;;;;;5.90;3.90;;;;;;;28.50;31.00;101165.79;107929;1254;63092;-81
2023/09/18 10:29:36;;;;;;;6.20;4.20;;;;;;;28.53;31.53;101167.24;108024;1257;63921;-82
2023/09/18 10:32:04;;;;;;;5.00;4.20;;;;;;;28.58;31.57;101165.60;108010;1254;61234;-80
2023/09/18 10:34:31;;;;;;;8.60;4.20;;;;;;;28.62;31.10;101162.45;108022;1256;61128;-81
2023/09/18 10:37:00;;;;;;;7.30;4.20;;;;;;;28.69;30.76;101160.79;107767;1254;64615;-81
2023/09/18 10:39:28;;;;;;;6.60;4.60;;;;;;;28.78;30.95;101157.24;108011;1254;64063;-81
2023/09/18 10:41:57;;;;;;;6.40;4.10;;;;;;;28.82;30.91;101158.27;108018;1257;64313;-82
2023/09/18 10:44:24;;;;;;;7.10;4.30;;;;;;;28.88;30.71;101151.84;107705;1257;61135;-81
2023/09/18 10:46:52;;;;;;;5.10;3.60;;;;;;;28.93;30.54;101147.92;107923;1257;61422;-81
2023/09/18 10:49:19;;;;;;;6.00;4.10;;;;;;;29.00;29.78;101144.04;107883;1254;65843;-81
2023/09/18 10:51:49;;;;;;;5.20;4.00;;;;;;;29.04;28.73;101145.98;108050;1254;64235;-81
2023/09/18 10:54:20;;;;;;;6.00;4.10;;;;;;;28.93;28.53;101145.80;107834;1254;64097;-80
2023/09/18 10:56:47;;;;;;;5.70;4.00;;;;;;;28.85;29.41;101147.23;107838;1254;61122;-80
2023/09/18 10:59:15;;;;;;;5.70;3.80;;;;;;;28.87;29.86;101144.60;108074;1254;61099;-80
2023/09/18 11:01:42;;;;;;;5.40;4.00;;;;;;;28.92;29.54;101143.56;107986;1254;66100;-80
2023/09/18 11:04:11;;;;;;;6.00;4.10;;;;;;;28.97;29.45;101143.04;107937;1257;64179;-81
2023/09/18 11:06:53;;;;;;;6.30;4.10;;;;;;;29.04;29.41;101140.40;107998;1253;63914;-81
2023/09/18 11:09:21;;;;;;;4.80;3.80;;;;;;;29.02;29.01;101140.77;108065;1254;61137;-81
2023/09/18 11:12:02;;;;;;;7.50;4.00;;;;;;;28.89;28.77;101137.64;107882;1254;61198;-79
2023/09/18 11:14:49;;;;;;;4.90;3.80;;;;;;;28.77;28.80;101139.31;107952;1253;68863;-81
2023/09/18 11:17:34;;;;;;;6.50;3.90;;;;;;;28.71;29.40;101137.57;107914;1255;64084;-82
2023/09/18 11:20:23;;;;;;;8.10;4.30;;;;;;;28.68;30.12;101134.05;107894;1254;63000;-81